Time,TemperatureF,DewpointF,PressureIn,WindDirection,WindDirectionDegrees,WindSpeedMPH,WindSpeedGustMPH,Humidity,HourlyPrecipIn,Conditions,Clouds,dailyrainin,SoftwareType,DateUTC
2013-02-23 00:00:00,44.0,42.9,30.08,NE,48,0.0,3.0,96,0.00,,---,0.38,VWS V14.00,2013-02-23 05:00:00,
2013-02-23 00:05:00,43.8,42.7,30.09,NE,48,0.0,3.0,96,0.00,,---,0.38,VWS V14.00,2013-02-23 05:05:00,
2013-02-23 00:10:00,43.7,42.6,30.09,NE,48,0.0,0.0,96,0.00,,---,0.00,VWS V14.00,2013-02-23 05:10:00,
2013-02-23 00:15:00,43.6,42.5,30.09,NE,48,0.0,0.0,96,0.00,,---,0.00,VWS V14.00,2013-02-23 05:15:00,
2013-02-23 00:20:00,43.5,42.4,30.08,NE,48,0.0,0.0,96,0.00,,---,0.00,VWS V14.00,2013-02-23 05:20:00,
2013-02-23 00:25:00,43.4,42.3,30.07,NE,48,0.0,1.0,96,0.00,,---,0.00,VWS V14.00,2013-02-23 05:25:00,
2013-02-23 00:30:00,43.5,42.4,30.08,NE,46,0.0,1.0,96,0.00,,---,0.00,VWS V14.00,2013-02-23 05:30:00,
2013-02-23 00:35:00,43.5,42.4,30.07,NE,46,0.0,2.0,96,0.00,,---,0.00,VWS V14.00,2013-02-23 05:35:00,
2013-02-23 00:40:00,43.5,42.4,30.07,NE,47,0.0,1.0,96,0.00,,---,0.00,VWS V14.00,2013-02-23 05:40:00,
2013-02-23 00:45:00,43.5,42.4,30.06,NE,46,0.0,1.0,96,0.00,,---,0.00,VWS V14.00,2013-02-23 05:45:00,
2013-02-23 00:50:00,43.5,42.4,30.07,NE,46,0.0,1.0,96,0.00,,---,0.00,VWS V14.00,2013-02-23 05:50:00,
2013-02-23 00:55:00,43.5,42.4,30.08,NE,47,0.0,1.0,96,0.00,,---,0.00,VWS V14.00,2013-02-23 05:55:00,
2013-02-23 01:00:00,43.4,42.3,30.08,NE,45,1.0,2.0,96,0.00,,---,0.00,VWS V14.00,2013-02-23 06:00:00,
2013-02-23 01:05:00,43.3,42.2,30.08,NE,45,0.0,2.0,96,0.00,,---,0.00,VWS V14.00,2013-02-23 06:05:00,
2013-02-23 01:10:00,43.2,42.1,30.07,NE,45,0.0,0.0,96,0.00,,---,0.00,VWS V14.00,2013-02-23 06:10:00,
2013-02-23 01:15:00,43.1,42.0,30.07,NE,45,0.0,0.0,96,0.00,,---,0.00,VWS V14.00,2013-02-23 06:15:00,
2013-02-23 01:20:00,42.9,41.8,30.07,NE,45,0.0,0.0,96,0.00,,---,0.00,VWS V14.00,2013-02-23 06:20:00,
2013-02-23 01:25:00,42.9,41.8,30.07,NE,45,0.0,1.0,96,0.00,,---,0.00,VWS V14.00,2013-02-23 06:25:00,
2013-02-23 01:30:00,42.8,41.7,30.07,NE,45,0.0,1.0,96,0.00,,---,0.00,VWS V14.00,2013-02-23 06:30:00,
2013-02-23 01:35:00,42.7,41.6,30.07,NE,45,0.0,1.0,96,0.00,,---,0.00,VWS V14.00,2013-02-23 06:35:00,
2013-02-23 01:40:00,42.7,41.6,30.05,NE,45,0.0,0.0,96,0.00,,---,0.00,VWS V14.00,2013-02-23 06:40:00,
2013-02-23 01:45:00,42.6,41.5,30.06,NE,45,0.0,0.0,96,0.00,,---,0.00,VWS V14.00,2013-02-23 06:45:00,
2013-02-23 01:50:00,42.6,41.5,30.05,NE,45,0.0,0.0,96,0.00,,---,0.00,VWS V14.00,2013-02-23 06:50:00,
2013-02-23 01:55:00,42.7,41.6,30.05,NE,45,0.0,0.0,96,0.01,,---,0.01,VWS V14.00,2013-02-23 06:55:00,
2013-02-23 02:00:00,42.8,42.0,30.05,NE,45,0.0,0.0,97,0.01,,---,0.01,VWS V14.00,2013-02-23 07:00:00,
2013-02-23 02:05:00,42.8,42.0,30.06,NE,45,0.0,1.0,97,0.02,,---,0.02,VWS V14.00,2013-02-23 07:05:00,
2013-02-23 02:10:00,42.9,42.1,30.06,NE,45,0.0,0.0,97,0.02,,---,0.02,VWS V14.00,2013-02-23 07:10:00,
2013-02-23 02:15:00,42.9,42.1,30.07,NE,45,0.0,0.0,97,0.02,,---,0.02,VWS V14.00,2013-02-23 07:15:00,
2013-02-23 02:20:00,43.0,42.2,30.06,NE,45,0.0,0.0,97,0.02,,---,0.02,VWS V14.00,2013-02-23 07:20:00,
2013-02-23 02:25:00,43.5,42.7,30.07,NE,45,0.0,1.0,97,0.03,,---,0.03,VWS V14.00,2013-02-23 07:25:00,
2013-02-23 02:30:00,43.8,43.0,30.05,NE,45,0.0,1.0,97,0.03,,---,0.03,VWS V14.00,2013-02-23 07:30:00,
2013-02-23 02:35:00,44.0,43.2,30.05,NE,45,0.0,1.0,97,0.04,,---,0.04,VWS V14.00,2013-02-23 07:35:00,
2013-02-23 02:40:00,44.0,43.2,30.05,NE,45,0.0,0.0,97,0.06,,---,0.06,VWS V14.00,2013-02-23 07:40:00,
2013-02-23 02:45:00,44.2,43.4,30.05,NE,45,0.0,1.0,97,0.07,,---,0.07,VWS V14.00,2013-02-23 07:45:00,
2013-02-23 02:50:00,44.2,43.4,30.04,NE,45,0.0,1.0,97,0.08,,---,0.08,VWS V14.00,2013-02-23 07:50:00,
2013-02-23 02:55:00,44.2,43.4,30.04,NE,45,0.0,1.0,97,0.11,,---,0.11,VWS V14.00,2013-02-23 07:55:00,
2013-02-23 03:00:00,43.9,43.1,30.04,NE,46,0.0,2.0,97,0.14,,---,0.14,VWS V14.00,2013-02-23 08:00:00,
2013-02-23 03:05:00,43.8,43.0,30.04,NE,46,0.0,2.0,97,0.15,,---,0.15,VWS V14.00,2013-02-23 08:05:00,
2013-02-23 03:10:00,43.7,42.9,30.05,NE,46,0.0,0.0,97,0.14,,---,0.16,VWS V14.00,2013-02-23 08:10:00,
2013-02-23 03:15:00,43.5,42.7,30.05,NE,46,0.0,0.0,97,0.14,,---,0.16,VWS V14.00,2013-02-23 08:15:00,
2013-02-23 03:20:00,43.4,42.6,30.04,NE,46,0.0,0.0,97,0.15,,---,0.17,VWS V14.00,2013-02-23 08:20:00,
2013-02-23 03:25:00,43.3,42.5,30.03,NE,46,0.0,0.0,97,0.16,,---,0.18,VWS V14.00,2013-02-23 08:25:00,
2013-02-23 03:30:00,43.3,42.5,30.02,NE,46,0.0,0.0,97,0.17,,---,0.19,VWS V14.00,2013-02-23 08:30:00,
2013-02-23 03:35:00,43.1,42.3,30.01,NE,46,0.0,0.0,97,0.17,,---,0.19,VWS V14.00,2013-02-23 08:35:00,
2013-02-23 03:40:00,43.1,42.3,30.02,NE,46,0.0,0.0,97,0.14,,---,0.19,VWS V14.00,2013-02-23 08:40:00,
2013-02-23 03:45:00,43.0,42.2,30.02,NE,46,0.0,0.0,97,0.15,,---,0.20,VWS V14.00,2013-02-23 08:45:00,
2013-02-23 03:50:00,43.0,42.2,30.01,NE,46,0.0,0.0,97,0.15,,---,0.20,VWS V14.00,2013-02-23 08:50:00,
2013-02-23 03:55:00,43.0,42.2,30.01,NE,46,0.0,0.0,97,0.15,,---,0.20,VWS V14.00,2013-02-23 08:55:00,
2013-02-23 04:00:00,43.1,42.3,30.00,NE,46,0.0,0.0,97,0.16,,---,0.21,VWS V14.00,2013-02-23 09:00:00,
2013-02-23 04:05:00,43.2,42.4,29.97,NE,46,0.0,1.0,97,0.16,,---,0.21,VWS V14.00,2013-02-23 09:05:00,
2013-02-23 04:10:00,43.3,42.5,29.98,NE,45,0.0,2.0,97,0.06,,---,0.21,VWS V14.00,2013-02-23 09:10:00,
2013-02-23 04:15:00,43.7,42.9,29.97,NE,45,0.0,2.0,97,0.07,,---,0.22,VWS V14.00,2013-02-23 09:15:00,
2013-02-23 04:20:00,43.9,43.4,29.96,NE,45,0.0,2.0,98,0.07,,---,0.22,VWS V14.00,2013-02-23 09:20:00,
2013-02-23 04:25:00,44.1,43.6,29.97,NE,45,0.0,2.0,98,0.07,,---,0.22,VWS V14.00,2013-02-23 09:25:00,
2013-02-23 04:30:00,44.1,43.6,29.98,NE,45,0.0,2.0,98,0.07,,---,0.22,VWS V14.00,2013-02-23 09:30:00,
2013-02-23 04:35:00,44.1,43.6,29.98,NE,45,0.0,2.0,98,0.07,,---,0.22,VWS V14.00,2013-02-23 09:35:00,
2013-02-23 04:40:00,44.0,43.2,29.98,NE,45,0.0,0.0,97,0.03,,---,0.22,VWS V14.00,2013-02-23 09:40:00,
2013-02-23 04:45:00,44.1,43.6,29.98,NE,45,0.0,0.0,98,0.03,,---,0.22,VWS V14.00,2013-02-23 09:45:00,
2013-02-23 04:50:00,44.1,43.6,29.98,NE,45,0.0,0.0,98,0.04,,---,0.23,VWS V14.00,2013-02-23 09:50:00,
2013-02-23 04:55:00,44.3,43.8,29.98,NE,45,0.0,0.0,98,0.04,,---,0.23,VWS V14.00,2013-02-23 09:55:00,
2013-02-23 05:00:00,44.6,44.1,29.97,NE,45,0.0,0.0,98,0.04,,---,0.23,VWS V14.00,2013-02-23 10:00:00,
2013-02-23 05:05:00,44.9,44.4,29.97,NE,45,0.0,0.0,98,0.04,,---,0.23,VWS V14.00,2013-02-23 10:05:00,
2013-02-23 05:10:00,45.0,44.5,29.97,NE,45,0.0,0.0,98,0.02,,---,0.23,VWS V14.00,2013-02-23 10:10:00,
2013-02-23 05:15:00,44.7,44.2,29.99,NE,45,0.0,2.0,98,0.02,,---,0.23,VWS V14.00,2013-02-23 10:15:00,
2013-02-23 05:20:00,44.5,44.0,29.98,NE,46,0.0,2.0,98,0.02,,---,0.23,VWS V14.00,2013-02-23 10:20:00,
2013-02-23 05:25:00,44.3,43.5,29.98,NE,45,0.0,2.0,97,0.02,,---,0.23,VWS V14.00,2013-02-23 10:25:00,
2013-02-23 05:30:00,44.2,43.4,29.98,NE,45,0.0,2.0,97,0.02,,---,0.23,VWS V14.00,2013-02-23 10:30:00,
2013-02-23 05:35:00,44.0,43.2,29.98,NE,46,0.0,2.0,97,0.02,,---,0.23,VWS V14.00,2013-02-23 10:35:00,
2013-02-23 05:40:00,43.9,43.4,29.98,NE,46,0.0,0.0,98,0.02,,---,0.24,VWS V14.00,2013-02-23 10:40:00,
2013-02-23 05:45:00,43.9,43.4,29.98,NE,46,0.0,0.0,98,0.02,,---,0.24,VWS V14.00,2013-02-23 10:45:00,
2013-02-23 05:50:00,44.0,43.5,29.98,NE,46,0.0,0.0,98,0.03,,---,0.25,VWS V14.00,2013-02-23 10:50:00,
2013-02-23 05:55:00,43.9,43.4,29.98,NE,46,0.0,0.0,98,0.04,,---,0.26,VWS V14.00,2013-02-23 10:55:00,
2013-02-23 06:00:00,43.8,43.0,29.98,NE,46,0.0,0.0,97,0.05,,---,0.27,VWS V14.00,2013-02-23 11:00:00,
2013-02-23 06:05:00,43.7,42.9,29.98,NE,45,0.0,0.0,97,0.06,,---,0.28,VWS V14.00,2013-02-23 11:05:00,
2013-02-23 06:10:00,43.7,42.9,29.98,NE,46,0.0,0.0,97,0.06,,---,0.29,VWS V14.00,2013-02-23 11:10:00,
2013-02-23 06:15:00,43.7,43.2,29.98,NE,46,0.0,0.0,98,0.07,,---,0.30,VWS V14.00,2013-02-23 11:15:00,
2013-02-23 06:20:00,43.6,43.1,29.98,NE,46,0.0,0.0,98,0.07,,---,0.30,VWS V14.00,2013-02-23 11:20:00,
2013-02-23 06:25:00,43.6,43.1,29.98,NE,46,0.0,0.0,98,0.08,,---,0.31,VWS V14.00,2013-02-23 11:25:00,
2013-02-23 06:30:00,43.7,43.2,29.97,NE,46,0.0,0.0,98,0.09,,---,0.32,VWS V14.00,2013-02-23 11:30:00,
2013-02-23 06:35:00,43.7,43.2,29.97,NE,46,0.0,0.0,98,0.09,,---,0.32,VWS V14.00,2013-02-23 11:35:00,
2013-02-23 06:40:00,43.7,43.2,29.97,NE,46,0.0,0.0,98,0.10,,---,0.33,VWS V14.00,2013-02-23 11:40:00,
2013-02-23 06:45:00,43.8,43.3,29.97,NE,46,0.0,0.0,98,0.11,,---,0.34,VWS V14.00,2013-02-23 11:45:00,
2013-02-23 06:50:00,43.7,43.2,29.97,NE,46,0.0,0.0,98,0.11,,---,0.34,VWS V14.00,2013-02-23 11:50:00,
2013-02-23 06:55:00,43.7,43.2,29.97,NE,46,0.0,0.0,98,0.12,,---,0.35,VWS V14.00,2013-02-23 11:55:00,
2013-02-23 07:00:00,43.7,43.2,29.97,NE,46,0.0,0.0,98,0.12,,---,0.35,VWS V14.00,2013-02-23 12:00:00,
2013-02-23 07:05:00,43.7,43.2,29.97,NE,45,0.0,0.0,98,0.13,,---,0.36,VWS V14.00,2013-02-23 12:05:00,
2013-02-23 07:10:00,43.9,43.4,29.96,NE,45,0.0,2.0,98,0.09,,---,0.37,VWS V14.00,2013-02-23 12:10:00,
2013-02-23 07:15:00,44.0,43.5,29.97,NE,46,0.0,2.0,98,0.10,,---,0.38,VWS V14.00,2013-02-23 12:15:00,
2013-02-23 07:20:00,44.0,43.5,29.97,NE,46,0.0,2.0,98,0.11,,---,0.39,VWS V14.00,2013-02-23 12:20:00,
2013-02-23 07:25:00,44.0,43.5,29.96,NE,46,0.0,2.0,98,0.12,,---,0.40,VWS V14.00,2013-02-23 12:25:00,
2013-02-23 07:30:00,43.9,43.4,29.97,NE,46,0.0,2.0,98,0.12,,---,0.40,VWS V14.00,2013-02-23 12:30:00,
2013-02-23 07:35:00,43.9,43.4,29.97,NE,45,0.0,2.0,98,0.12,,---,0.40,VWS V14.00,2013-02-23 12:35:00,
2013-02-23 07:40:00,44.0,43.5,29.97,NE,46,0.0,0.0,98,0.07,,---,0.40,VWS V14.00,2013-02-23 12:40:00,
2013-02-23 07:45:00,44.0,43.5,29.97,NE,45,0.0,0.0,98,0.07,,---,0.40,VWS V14.00,2013-02-23 12:45:00,
2013-02-23 07:49:00,44.0,43.5,29.97,NE,46,0.0,0.0,98,0.08,,---,0.41,VWS V14.00,2013-02-23 12:49:00,
2013-02-23 07:54:00,44.0,43.5,29.96,NE,46,0.0,0.0,98,0.08,,---,0.41,VWS V14.00,2013-02-23 12:54:00,
2013-02-23 07:59:00,44.0,43.5,29.97,NE,45,0.0,0.0,98,0.08,,---,0.41,VWS V14.00,2013-02-23 12:59:00,
2013-02-23 08:04:00,44.0,43.5,29.97,NE,46,0.0,0.0,98,0.08,,---,0.41,VWS V14.00,2013-02-23 13:04:00,
2013-02-23 08:09:00,44.1,43.6,29.97,NE,45,0.0,0.0,98,0.06,,---,0.42,VWS V14.00,2013-02-23 13:09:00,
2013-02-23 08:15:00,44.2,43.7,29.97,NE,46,0.0,0.0,98,0.06,,---,0.42,VWS V14.00,2013-02-23 13:15:00,
2013-02-23 08:20:00,44.5,44.0,29.97,NE,45,0.0,0.0,98,0.06,,---,0.42,VWS V14.00,2013-02-23 13:20:00,
2013-02-23 08:25:00,44.9,44.4,29.97,NE,45,0.0,0.0,98,0.06,,---,0.42,VWS V14.00,2013-02-23 13:25:00,
2013-02-23 08:30:00,45.0,44.5,29.97,NE,45,0.0,0.0,98,0.06,,---,0.42,VWS V14.00,2013-02-23 13:30:00,
2013-02-23 08:34:00,45.3,44.8,29.97,NE,45,0.0,0.0,98,0.06,,---,0.42,VWS V14.00,2013-02-23 13:34:00,
2013-02-23 08:39:00,45.7,45.2,29.97,NE,46,0.0,0.0,98,0.02,,---,0.42,VWS V14.00,2013-02-23 13:39:00,
2013-02-23 08:45:00,46.0,45.7,29.97,NE,45,0.0,0.0,99,0.02,,---,0.42,VWS V14.00,2013-02-23 13:45:00,
2013-02-23 08:50:00,46.3,45.8,29.97,NE,45,0.0,0.0,98,0.02,,---,0.42,VWS V14.00,2013-02-23 13:50:00,
2013-02-23 08:54:00,46.3,45.8,29.97,NE,46,0.0,0.0,98,0.02,,---,0.42,VWS V14.00,2013-02-23 13:54:00,
2013-02-23 08:59:00,46.4,45.9,29.97,NE,46,0.0,0.0,98,0.02,,---,0.42,VWS V14.00,2013-02-23 13:59:00,
2013-02-23 09:04:00,46.7,46.4,29.96,NE,46,0.0,0.0,99,0.02,,---,0.42,VWS V14.00,2013-02-23 14:04:00,
2013-02-23 09:09:00,47.0,46.5,29.96,NE,45,0.0,0.0,98,0.01,,---,0.42,VWS V14.00,2013-02-23 14:09:00,
2013-02-23 09:15:00,47.2,46.9,29.96,NE,46,0.0,0.0,99,0.01,,---,0.42,VWS V14.00,2013-02-23 14:15:00,
2013-02-23 09:20:00,47.2,46.9,29.96,NE,45,0.0,2.0,99,0.01,,---,0.42,VWS V14.00,2013-02-23 14:20:00,
2013-02-23 09:24:00,47.0,46.5,29.96,NE,45,0.0,2.0,98,0.01,,---,0.42,VWS V14.00,2013-02-23 14:24:00,
2013-02-23 09:29:00,46.9,46.4,29.96,NE,46,0.0,2.0,98,0.01,,---,0.42,VWS V14.00,2013-02-23 14:29:00,
2013-02-23 09:34:00,46.8,46.3,29.97,NE,45,0.0,2.0,98,0.01,,---,0.42,VWS V14.00,2013-02-23 14:34:00,
2013-02-23 09:39:00,46.7,46.2,29.97,NE,46,0.0,0.0,98,0.00,,---,0.42,VWS V14.00,2013-02-23 14:39:00,
2013-02-23 09:44:00,46.6,46.1,29.96,NE,46,0.0,1.0,98,0.00,,---,0.42,VWS V14.00,2013-02-23 14:44:00,
2013-02-23 09:49:00,46.6,46.1,29.96,NE,45,0.0,1.0,98,0.00,,---,0.42,VWS V14.00,2013-02-23 14:49:00,
2013-02-23 09:54:00,46.6,46.1,29.96,NE,46,0.0,1.0,98,0.00,,---,0.42,VWS V14.00,2013-02-23 14:54:00,
2013-02-23 09:59:00,46.7,46.2,29.96,NE,46,0.0,1.0,98,0.00,,---,0.42,VWS V14.00,2013-02-23 14:59:00,
2013-02-23 10:04:00,46.6,46.1,29.96,NE,46,0.0,1.0,98,0.00,,---,0.42,VWS V14.00,2013-02-23 15:04:00,
2013-02-23 10:09:00,46.7,46.2,29.95,NE,45,0.0,0.0,98,0.00,,---,0.42,VWS V14.00,2013-02-23 15:09:00,
2013-02-23 10:14:00,46.9,46.4,29.95,NE,46,0.0,0.0,98,0.00,,---,0.42,VWS V14.00,2013-02-23 15:14:00,
2013-02-23 10:19:00,47.0,46.5,29.95,NE,46,0.0,0.0,98,0.00,,---,0.42,VWS V14.00,2013-02-23 15:19:00,
2013-02-23 10:25:00,47.5,47.0,29.94,NE,45,0.0,0.0,98,0.00,,---,0.42,VWS V14.00,2013-02-23 15:25:00,
2013-02-23 10:30:00,48.1,47.8,29.94,NE,45,0.0,0.0,99,0.00,,---,0.42,VWS V14.00,2013-02-23 15:30:00,
2013-02-23 10:35:00,48.8,48.5,29.94,NE,46,0.0,0.0,99,0.00,,---,0.42,VWS V14.00,2013-02-23 15:35:00,
2013-02-23 10:40:00,49.5,49.2,29.93,SSW,198,2.0,2.0,99,0.00,,---,0.42,VWS V14.00,2013-02-23 15:40:00,
2013-02-23 10:45:00,49.8,49.5,29.92,SSW,197,0.0,3.0,99,0.00,,---,0.42,VWS V14.00,2013-02-23 15:45:00,
2013-02-23 10:50:00,50.1,49.8,29.92,SSW,197,0.0,3.0,99,0.00,,---,0.42,VWS V14.00,2013-02-23 15:50:00,
2013-02-23 10:55:00,50.2,49.9,29.93,SSW,197,0.0,3.0,99,0.00,,---,0.42,VWS V14.00,2013-02-23 15:55:00,
2013-02-23 11:00:00,50.5,50.2,29.92,SSW,197,0.0,3.0,99,0.00,,---,0.42,VWS V14.00,2013-02-23 16:00:00,
2013-02-23 11:05:00,50.7,50.4,29.93,SSW,196,0.0,3.0,99,0.00,,---,0.42,VWS V14.00,2013-02-23 16:05:00,
2013-02-23 11:10:00,51.2,50.9,29.92,SSW,196,0.0,1.0,99,0.00,,---,0.42,VWS V14.00,2013-02-23 16:10:00,
2013-02-23 11:15:00,51.1,50.6,29.92,SSW,197,0.0,1.0,98,0.00,,---,0.42,VWS V14.00,2013-02-23 16:15:00,
2013-02-23 11:20:00,51.5,51.0,29.92,SSW,197,0.0,1.0,98,0.00,,---,0.42,VWS V14.00,2013-02-23 16:20:00,
2013-02-23 11:25:00,51.7,51.2,29.92,SSW,197,0.0,1.0,98,0.00,,---,0.42,VWS V14.00,2013-02-23 16:25:00,
2013-02-23 11:30:00,52.0,51.2,29.92,South,184,0.0,1.0,97,0.00,,---,0.42,VWS V14.00,2013-02-23 16:30:00,
2013-02-23 11:35:00,52.1,51.3,29.92,South,185,0.0,1.0,97,0.00,,---,0.42,VWS V14.00,2013-02-23 16:35:00,
2013-02-23 11:40:00,52.5,51.7,29.92,South,186,0.0,0.0,97,0.00,,---,0.42,VWS V14.00,2013-02-23 16:40:00,
2013-02-23 11:45:00,52.7,51.6,29.92,South,186,0.0,1.0,96,0.00,,---,0.42,VWS V14.00,2013-02-23 16:45:00,
2013-02-23 11:50:00,52.6,51.2,29.91,East,101,0.0,2.0,95,0.00,,---,0.42,VWS V14.00,2013-02-23 16:50:00,
2013-02-23 11:55:00,52.9,51.5,29.90,East,101,0.0,2.0,95,0.00,,---,0.42,VWS V14.00,2013-02-23 16:55:00,
2013-02-23 12:00:00,53.1,51.7,29.90,East,89,0.0,2.0,95,0.00,,---,0.42,VWS V14.00,2013-02-23 17:00:00,
2013-02-23 12:05:00,53.2,51.5,29.90,East,95,1.0,3.0,94,0.00,,---,0.42,VWS V14.00,2013-02-23 17:05:00,
2013-02-23 12:09:00,53.4,51.7,29.90,ENE,75,4.0,4.0,94,0.00,,---,0.42,VWS V14.00,2013-02-23 17:09:00,
2013-02-23 12:14:00,53.5,51.8,29.90,ENE,75,2.0,4.0,94,0.00,,---,0.42,VWS V14.00,2013-02-23 17:14:00,
2013-02-23 12:19:00,53.7,51.7,29.90,ENE,73,0.0,5.0,93,0.00,,---,0.42,VWS V14.00,2013-02-23 17:19:00,
2013-02-23 12:24:00,53.8,51.5,29.90,East,80,0.0,5.0,92,0.00,,---,0.42,VWS V14.00,2013-02-23 17:24:00,
2013-02-23 12:30:00,53.9,51.6,29.90,East,82,0.0,5.0,92,0.00,,---,0.42,VWS V14.00,2013-02-23 17:30:00,
2013-02-23 12:34:00,53.7,51.1,29.90,East,84,0.0,5.0,91,0.00,,---,0.42,VWS V14.00,2013-02-23 17:34:00,
2013-02-23 12:39:00,53.6,51.3,29.89,North,355,0.0,4.0,92,0.00,,---,0.42,VWS V14.00,2013-02-23 17:39:00,
2013-02-23 12:44:00,53.6,51.3,29.89,North,360,0.0,4.0,92,0.00,,---,0.42,VWS V14.00,2013-02-23 17:44:00,
2013-02-23 12:49:00,53.5,51.2,29.89,NE,51,0.0,4.0,92,0.00,,---,0.42,VWS V14.00,2013-02-23 17:49:00,
2013-02-23 12:54:00,53.3,51.0,29.89,NE,51,0.0,4.0,92,0.00,,---,0.42,VWS V14.00,2013-02-23 17:54:00,
2013-02-23 12:59:00,53.2,50.9,29.89,NE,51,0.0,4.0,92,0.00,,---,0.42,VWS V14.00,2013-02-23 17:59:00,
2013-02-23 13:04:00,53.3,51.3,29.89,NE,51,0.0,4.0,93,0.00,,---,0.42,VWS V14.00,2013-02-23 18:04:00,
2013-02-23 13:09:00,53.2,51.2,29.89,NE,51,0.0,0.0,93,0.00,,---,0.42,VWS V14.00,2013-02-23 18:09:00,
2013-02-23 13:14:00,53.2,51.2,29.89,NE,52,0.0,1.0,93,0.00,,---,0.42,VWS V14.00,2013-02-23 18:14:00,
2013-02-23 13:19:00,53.2,51.2,29.89,NE,52,0.0,1.0,93,0.00,,---,0.42,VWS V14.00,2013-02-23 18:19:00,
2013-02-23 13:24:00,53.4,51.7,29.89,NE,52,0.0,1.0,94,0.00,,---,0.42,VWS V14.00,2013-02-23 18:24:00,
2013-02-23 13:29:00,53.5,51.8,29.88,NE,52,0.0,1.0,94,0.00,,---,0.42,VWS V14.00,2013-02-23 18:29:00,
2013-02-23 13:34:00,53.6,51.6,29.88,NE,52,0.0,1.0,93,0.00,,---,0.42,VWS V14.00,2013-02-23 18:34:00,
2013-02-23 13:39:00,53.7,51.7,29.88,NE,52,0.0,0.0,93,0.00,,---,0.42,VWS V14.00,2013-02-23 18:39:00,
2013-02-23 13:44:00,53.8,51.8,29.87,NE,52,0.0,1.0,93,0.00,,---,0.42,VWS V14.00,2013-02-23 18:44:00,
2013-02-23 13:49:00,53.6,51.3,29.87,NE,52,0.0,2.0,92,0.00,,---,0.42,VWS V14.00,2013-02-23 18:49:00,
2013-02-23 13:54:00,53.4,51.1,29.87,NE,52,0.0,2.0,92,0.00,,---,0.42,VWS V14.00,2013-02-23 18:54:00,
2013-02-23 13:59:00,53.3,51.0,29.87,NE,52,0.0,2.0,92,0.00,,---,0.42,VWS V14.00,2013-02-23 18:59:00,
2013-02-23 14:04:00,53.5,51.5,29.87,NE,52,0.0,2.0,93,0.00,,---,0.42,VWS V14.00,2013-02-23 19:04:00,
2013-02-23 14:09:00,53.4,51.4,29.86,NE,52,0.0,0.0,93,0.00,,---,0.42,VWS V14.00,2013-02-23 19:09:00,
2013-02-23 14:14:00,53.4,51.1,29.88,NE,52,0.0,0.0,92,0.00,,---,0.42,VWS V14.00,2013-02-23 19:14:00,
2013-02-23 14:19:00,53.3,50.7,29.87,NE,52,0.0,1.0,91,0.00,,---,0.42,VWS V14.00,2013-02-23 19:19:00,
2013-02-23 14:24:00,53.5,51.2,29.87,NE,52,0.0,1.0,92,0.00,,---,0.42,VWS V14.00,2013-02-23 19:24:00,
2013-02-23 14:29:00,53.7,51.7,29.87,NE,52,0.0,1.0,93,0.00,,---,0.42,VWS V14.00,2013-02-23 19:29:00,
2013-02-23 14:34:00,53.7,51.4,29.87,NE,52,0.0,1.0,92,0.00,,---,0.42,VWS V14.00,2013-02-23 19:34:00,
2013-02-23 14:39:00,53.7,51.4,29.86,NE,52,0.0,0.0,92,0.00,,---,0.42,VWS V14.00,2013-02-23 19:39:00,
2013-02-23 14:44:00,53.7,51.4,29.86,NE,52,0.0,0.0,92,0.00,,---,0.42,VWS V14.00,2013-02-23 19:44:00,
2013-02-23 14:49:00,53.8,51.5,29.86,NE,52,0.0,0.0,92,0.00,,---,0.42,VWS V14.00,2013-02-23 19:49:00,
2013-02-23 14:54:00,53.8,51.5,29.86,NE,52,0.0,0.0,92,0.00,,---,0.42,VWS V14.00,2013-02-23 19:54:00,
2013-02-23 14:59:00,53.8,51.5,29.85,NE,52,0.0,1.0,92,0.00,,---,0.42,VWS V14.00,2013-02-23 19:59:00,
2013-02-23 15:04:00,53.8,51.2,29.86,NE,52,0.0,1.0,91,0.00,,---,0.42,VWS V14.00,2013-02-23 20:04:00,
2013-02-23 15:09:00,53.7,51.1,29.87,NE,52,0.0,0.0,91,0.00,,---,0.42,VWS V14.00,2013-02-23 20:09:00,
2013-02-23 15:14:00,53.6,51.0,29.87,NE,52,0.0,0.0,91,0.00,,---,0.42,VWS V14.00,2013-02-23 20:14:00,
2013-02-23 15:19:00,53.7,51.4,29.86,NE,52,0.0,0.0,92,0.00,,---,0.42,VWS V14.00,2013-02-23 20:19:00,
2013-02-23 15:24:00,53.7,51.4,29.86,NE,52,0.0,1.0,92,0.00,,---,0.42,VWS V14.00,2013-02-23 20:24:00,
2013-02-23 15:29:00,53.7,51.1,29.86,NE,52,0.0,1.0,91,0.00,,---,0.42,VWS V14.00,2013-02-23 20:29:00,
2013-02-23 15:34:00,53.7,51.4,29.87,NE,52,0.0,1.0,92,0.00,,---,0.42,VWS V14.00,2013-02-23 20:34:00,
2013-02-23 15:39:00,53.7,51.1,29.87,NE,52,0.0,1.0,91,0.00,,---,0.42,VWS V14.00,2013-02-23 20:39:00,
2013-02-23 15:44:00,53.7,51.1,29.87,NE,52,0.0,2.0,91,0.00,,---,0.42,VWS V14.00,2013-02-23 20:44:00,
2013-02-23 15:49:00,53.6,50.7,29.87,NE,52,1.0,2.0,90,0.00,,---,0.42,VWS V14.00,2013-02-23 20:49:00,
2013-02-23 15:54:00,53.5,50.6,29.87,NE,52,0.0,2.0,90,0.00,,---,0.42,VWS V14.00,2013-02-23 20:54:00,
2013-02-23 15:59:00,53.5,50.6,29.87,NE,52,0.0,2.0,90,0.00,,---,0.42,VWS V14.00,2013-02-23 20:59:00,
2013-02-23 16:04:00,53.4,50.2,29.87,NE,40,0.0,4.0,89,0.00,,---,0.42,VWS V14.00,2013-02-23 21:04:00,
2013-02-23 16:09:00,53.4,49.9,29.86,NE,40,0.0,0.0,88,0.00,,---,0.42,VWS V14.00,2013-02-23 21:09:00,
2013-02-23 16:14:00,53.3,49.5,29.86,NE,40,0.0,2.0,87,0.00,,---,0.42,VWS V14.00,2013-02-23 21:14:00,
2013-02-23 16:19:00,53.3,49.2,29.86,NW,317,1.0,6.0,86,0.00,,---,0.42,VWS V14.00,2013-02-23 21:19:00,
2013-02-23 16:24:00,53.3,49.2,29.86,West,265,2.0,6.0,86,0.00,,---,0.42,VWS V14.00,2013-02-23 21:24:00,
2013-02-23 16:29:00,53.2,48.8,29.86,WNW,298,0.0,6.0,85,0.00,,---,0.42,VWS V14.00,2013-02-23 21:29:00,
2013-02-23 16:34:00,53.2,48.8,29.85,NNW,344,0.0,6.0,85,0.00,,---,0.42,VWS V14.00,2013-02-23 21:34:00,
2013-02-23 16:39:00,53.2,49.1,29.86,NNW,344,0.0,0.0,86,0.00,,---,0.42,VWS V14.00,2013-02-23 21:39:00,
2013-02-23 16:44:00,53.2,48.8,29.85,NNW,344,0.0,0.0,85,0.00,,---,0.42,VWS V14.00,2013-02-23 21:44:00,
2013-02-23 16:49:00,53.1,49.0,29.85,NNW,342,0.0,2.0,86,0.00,,---,0.42,VWS V14.00,2013-02-23 21:49:00,
2013-02-23 16:54:00,53.0,48.9,29.85,NNW,342,0.0,2.0,86,0.00,,---,0.42,VWS V14.00,2013-02-23 21:54:00,
2013-02-23 16:59:00,53.0,48.9,29.85,NNW,342,0.0,2.0,86,0.00,,---,0.42,VWS V14.00,2013-02-23 21:59:00,
2013-02-23 17:04:00,52.9,48.8,29.85,NNW,338,2.0,3.0,86,0.00,,---,0.42,VWS V14.00,2013-02-23 22:04:00,
2013-02-23 17:09:00,52.7,48.3,29.86,NNW,338,0.0,0.0,85,0.00,,---,0.42,VWS V14.00,2013-02-23 22:09:00,
2013-02-23 17:14:00,52.6,48.2,29.86,NNW,338,0.0,0.0,85,0.00,,---,0.42,VWS V14.00,2013-02-23 22:14:00,
2013-02-23 17:19:00,52.5,48.1,29.86,NNW,338,0.0,0.0,85,0.00,,---,0.42,VWS V14.00,2013-02-23 22:19:00,
2013-02-23 17:24:00,52.5,48.4,29.86,NNW,338,0.0,0.0,86,0.00,,---,0.42,VWS V14.00,2013-02-23 22:24:00,
2013-02-23 17:29:00,52.3,47.9,29.85,NNW,338,0.0,1.0,85,0.00,,---,0.42,VWS V14.00,2013-02-23 22:29:00,
2013-02-23 17:34:00,52.1,47.7,29.85,NNW,338,2.0,3.0,85,0.00,,---,0.42,VWS V14.00,2013-02-23 22:34:00,
2013-02-23 17:39:00,51.8,46.8,29.85,West,263,0.0,2.0,83,0.00,,---,0.42,VWS V14.00,2013-02-23 22:39:00,
2013-02-23 17:44:00,51.6,46.6,29.85,West,263,0.0,2.0,83,0.00,,---,0.42,VWS V14.00,2013-02-23 22:44:00,
2013-02-23 17:49:00,51.4,46.7,29.85,West,263,0.0,2.0,84,0.00,,---,0.42,VWS V14.00,2013-02-23 22:49:00,
2013-02-23 17:54:00,51.3,46.6,29.85,West,263,0.0,2.0,84,0.00,,---,0.42,VWS V14.00,2013-02-23 22:54:00,
2013-02-23 17:59:00,51.1,46.4,29.85,West,263,0.0,2.0,84,0.00,,---,0.42,VWS V14.00,2013-02-23 22:59:00,
2013-02-23 18:04:00,51.0,46.7,29.85,West,263,0.0,2.0,85,0.00,,---,0.42,VWS V14.00,2013-02-23 23:04:00,
2013-02-23 18:09:00,50.9,46.9,29.85,West,263,0.0,0.0,86,0.00,,---,0.42,VWS V14.00,2013-02-23 23:09:00,
2013-02-23 18:14:00,50.7,46.0,29.85,West,264,0.0,2.0,84,0.00,,---,0.42,VWS V14.00,2013-02-23 23:14:00,
2013-02-23 18:19:00,50.5,45.8,29.86,West,264,0.0,2.0,84,0.00,,---,0.42,VWS V14.00,2013-02-23 23:19:00,
2013-02-23 18:24:00,50.3,45.0,29.86,West,264,0.0,2.0,82,0.00,,---,0.42,VWS V14.00,2013-02-23 23:24:00,
2013-02-23 18:29:00,50.1,45.5,29.86,West,264,0.0,2.0,84,0.00,,---,0.42,VWS V14.00,2013-02-23 23:29:00,
2013-02-23 18:34:00,49.9,45.3,29.85,West,264,0.0,2.0,84,0.00,,---,0.42,VWS V14.00,2013-02-23 23:34:00,
2013-02-23 18:39:00,49.8,45.2,29.85,West,264,0.0,0.0,84,0.00,,---,0.42,VWS V14.00,2013-02-23 23:39:00,
2013-02-23 18:44:00,49.5,44.2,29.86,West,264,0.0,0.0,82,0.00,,---,0.42,VWS V14.00,2013-02-23 23:44:00,
2013-02-23 18:49:00,49.2,43.6,29.86,West,264,0.0,0.0,81,0.00,,---,0.42,VWS V14.00,2013-02-23 23:49:00,
2013-02-23 18:54:00,49.0,43.1,29.86,West,264,0.0,0.0,80,0.00,,---,0.42,VWS V14.00,2013-02-23 23:54:00,
2013-02-23 18:59:00,48.9,43.0,29.86,West,264,0.0,0.0,80,0.00,,---,0.42,VWS V14.00,2013-02-23 23:59:00,
2013-02-23 19:04:00,48.8,42.9,29.86,West,264,0.0,0.0,80,0.00,,---,0.42,VWS V14.00,2013-02-24 00:04:00,
2013-02-23 19:09:00,48.7,43.5,29.86,West,264,0.0,0.0,82,0.00,,---,0.42,VWS V14.00,2013-02-24 00:09:00,
2013-02-23 19:14:00,48.7,43.1,29.86,West,264,0.0,0.0,81,0.00,,---,0.42,VWS V14.00,2013-02-24 00:14:00,
2013-02-23 19:19:00,48.5,42.6,29.87,West,264,0.0,0.0,80,0.00,,---,0.42,VWS V14.00,2013-02-24 00:19:00,
2013-02-23 19:24:00,48.5,42.6,29.87,West,264,0.0,0.0,80,0.00,,---,0.42,VWS V14.00,2013-02-24 00:24:00,
2013-02-23 19:29:00,48.4,42.2,29.87,West,264,0.0,0.0,79,0.00,,---,0.42,VWS V14.00,2013-02-24 00:29:00,
2013-02-23 19:34:00,48.3,41.4,29.87,West,264,0.0,0.0,77,0.00,,---,0.42,VWS V14.00,2013-02-24 00:34:00,
2013-02-23 19:39:00,48.2,41.0,29.87,West,264,0.0,0.0,76,0.00,,---,0.42,VWS V14.00,2013-02-24 00:39:00,
2013-02-23 19:44:00,48.1,40.2,29.88,West,264,0.0,0.0,74,0.00,,---,0.42,VWS V14.00,2013-02-24 00:44:00,
2013-02-23 19:49:00,48.1,40.6,29.88,West,264,0.0,0.0,75,0.00,,---,0.42,VWS V14.00,2013-02-24 00:49:00,
2013-02-23 19:54:00,48.1,40.2,29.88,West,264,0.0,0.0,74,0.00,,---,0.42,VWS V14.00,2013-02-24 00:54:00,
2013-02-23 19:59:00,48.1,39.5,29.88,West,264,0.0,0.0,72,0.00,,---,0.42,VWS V14.00,2013-02-24 00:59:00,
2013-02-23 20:04:00,48.0,38.3,29.87,West,264,0.0,0.0,69,0.00,,---,0.42,VWS V14.00,2013-02-24 01:04:00,
2013-02-23 20:09:00,48.0,37.6,29.87,West,264,0.0,0.0,67,0.00,,---,0.42,VWS V14.00,2013-02-24 01:09:00,
2013-02-23 20:14:00,48.0,37.6,29.86,West,264,0.0,0.0,67,0.00,,---,0.42,VWS V14.00,2013-02-24 01:14:00,
2013-02-23 20:19:00,47.9,38.2,29.86,West,264,0.0,0.0,69,0.00,,---,0.42,VWS V14.00,2013-02-24 01:19:00,
2013-02-23 20:24:00,47.9,39.0,29.86,West,264,0.0,0.0,71,0.00,,---,0.42,VWS V14.00,2013-02-24 01:24:00,
2013-02-23 20:29:00,47.8,39.2,29.86,West,264,0.0,0.0,72,0.00,,---,0.42,VWS V14.00,2013-02-24 01:29:00,
2013-02-23 20:34:00,47.7,39.8,29.86,West,264,0.0,0.0,74,0.00,,---,0.42,VWS V14.00,2013-02-24 01:34:00,
2013-02-23 20:39:00,47.5,37.5,29.86,West,264,0.0,1.0,68,0.00,,---,0.42,VWS V14.00,2013-02-24 01:39:00,
2013-02-23 20:44:00,47.3,35.8,29.86,West,264,0.0,1.0,64,0.00,,---,0.42,VWS V14.00,2013-02-24 01:44:00,
2013-02-23 20:49:00,47.4,35.5,29.87,WNW,285,3.0,3.0,63,0.00,,---,0.42,VWS V14.00,2013-02-24 01:49:00,
2013-02-23 20:54:00,47.7,35.3,29.87,WNW,287,1.0,4.0,62,0.00,,---,0.42,VWS V14.00,2013-02-24 01:54:00,
2013-02-23 20:59:00,48.0,35.6,29.87,WNW,287,0.0,4.0,62,0.00,,---,0.42,VWS V14.00,2013-02-24 01:59:00,
2013-02-23 21:04:00,48.2,35.4,29.88,NW,323,0.0,4.0,61,0.00,,---,0.42,VWS V14.00,2013-02-24 02:04:00,
2013-02-23 21:09:00,48.2,35.8,29.88,NW,324,0.0,0.0,62,0.00,,---,0.42,VWS V14.00,2013-02-24 02:09:00,
2013-02-23 21:14:00,48.2,35.8,29.88,NW,322,0.0,4.0,62,0.00,,---,0.42,VWS V14.00,2013-02-24 02:14:00,
2013-02-23 21:19:00,48.2,35.8,29.89,NW,323,0.0,4.0,62,0.00,,---,0.42,VWS V14.00,2013-02-24 02:19:00,
2013-02-23 21:24:00,48.0,35.2,29.89,NW,326,2.0,4.0,61,0.00,,---,0.42,VWS V14.00,2013-02-24 02:24:00,
2013-02-23 21:29:00,47.9,34.7,29.89,SW,233,0.0,4.0,60,0.00,,---,0.42,VWS V14.00,2013-02-24 02:29:00,
2013-02-23 21:34:00,47.8,34.6,29.89,SW,232,0.0,4.0,60,0.00,,---,0.42,VWS V14.00,2013-02-24 02:34:00,
2013-02-23 21:39:00,47.8,34.2,29.90,SSW,206,1.0,4.0,59,0.00,,---,0.42,VWS V14.00,2013-02-24 02:39:00,
2013-02-23 21:44:00,47.8,34.6,29.90,ESE,115,3.0,4.0,60,0.00,,---,0.42,VWS V14.00,2013-02-24 02:44:00,
2013-02-23 21:49:00,47.8,34.6,29.90,South,183,1.0,7.0,60,0.00,,---,0.42,VWS V14.00,2013-02-24 02:49:00,
2013-02-23 21:54:00,47.8,35.4,29.90,South,176,2.0,7.0,62,0.00,,---,0.42,VWS V14.00,2013-02-24 02:54:00,
2013-02-23 21:59:00,47.6,35.6,29.91,WSW,238,5.0,10.0,63,0.00,,---,0.42,VWS V14.00,2013-02-24 02:59:00,
2013-02-23 22:04:00,47.4,36.2,29.91,SSW,207,2.0,10.0,65,0.00,,---,0.42,VWS V14.00,2013-02-24 03:04:00,
2013-02-23 22:09:00,47.0,36.6,29.90,WSW,239,2.0,4.0,67,0.00,,---,0.42,VWS V14.00,2013-02-24 03:09:00,
2013-02-23 22:14:00,46.7,37.5,29.90,SSW,201,0.0,9.0,70,0.00,,---,0.42,VWS V14.00,2013-02-24 03:14:00,
2013-02-23 22:19:00,46.5,38.0,29.91,South,175,0.0,9.0,72,0.00,,---,0.42,VWS V14.00,2013-02-24 03:19:00,
2013-02-23 22:24:00,46.4,38.9,29.92,South,179,4.0,9.0,75,0.00,,---,0.42,VWS V14.00,2013-02-24 03:24:00,
2013-02-23 22:29:00,46.4,39.9,29.92,South,181,0.0,9.0,78,0.00,,---,0.42,VWS V14.00,2013-02-24 03:29:00,
2013-02-23 22:34:00,46.3,40.2,29.92,SW,235,0.0,9.0,79,0.00,,---,0.42,VWS V14.00,2013-02-24 03:34:00,
2013-02-23 22:39:00,46.3,40.5,29.92,South,169,0.0,1.0,80,0.00,,---,0.42,VWS V14.00,2013-02-24 03:39:00,
2013-02-23 22:44:00,46.2,40.4,29.92,South,169,0.0,1.0,80,0.00,,---,0.42,VWS V14.00,2013-02-24 03:44:00,
2013-02-23 22:49:00,46.1,40.3,29.92,SSW,213,0.0,3.0,80,0.00,,---,0.42,VWS V14.00,2013-02-24 03:49:00,
2013-02-23 22:54:00,46.0,40.5,29.92,SSW,213,0.0,3.0,81,0.00,,---,0.42,VWS V14.00,2013-02-24 03:54:00,
2013-02-23 22:59:00,45.9,40.4,29.92,SSW,213,0.0,3.0,81,0.00,,---,0.42,VWS V14.00,2013-02-24 03:59:00,
2013-02-23 23:04:00,45.8,40.3,29.92,SSW,213,0.0,3.0,81,0.00,,---,0.42,VWS V14.00,2013-02-24 04:04:00,
2013-02-23 23:09:00,45.6,40.1,29.91,SSW,212,0.0,1.0,81,0.00,,---,0.42,VWS V14.00,2013-02-24 04:09:00,
2013-02-23 23:14:00,45.5,40.3,29.91,SSW,211,0.0,1.0,82,0.00,,---,0.42,VWS V14.00,2013-02-24 04:14:00,
2013-02-23 23:19:00,45.4,40.2,29.91,SSW,212,0.0,1.0,82,0.00,,---,0.42,VWS V14.00,2013-02-24 04:19:00,
2013-02-23 23:24:00,45.2,40.0,29.91,SW,225,0.0,2.0,82,0.00,,---,0.42,VWS V14.00,2013-02-24 04:24:00,
2013-02-23 23:29:00,45.0,39.8,29.91,WNW,300,0.0,3.0,82,0.00,,---,0.42,VWS V14.00,2013-02-24 04:29:00,
2013-02-23 23:34:00,45.0,39.8,29.90,WNW,300,0.0,3.0,82,0.00,,---,0.42,VWS V14.00,2013-02-24 04:34:00,
2013-02-23 23:39:00,44.8,40.0,29.90,WNW,300,0.0,0.0,83,0.00,,---,0.42,VWS V14.00,2013-02-24 04:39:00,
2013-02-23 23:44:00,44.6,39.8,29.90,WNW,300,0.0,3.0,83,0.00,,---,0.42,VWS V14.00,2013-02-24 04:44:00,
2013-02-23 23:49:00,44.3,39.8,29.91,WNW,300,0.0,3.0,84,0.00,,---,0.42,VWS V14.00,2013-02-24 04:49:00,
2013-02-23 23:54:00,44.2,39.7,29.91,WNW,300,0.0,3.0,84,0.00,,---,0.42,VWS V14.00,2013-02-24 04:54:00,
2013-02-23 23:59:00,44.0,39.8,29.91,WNW,301,0.0,3.0,85,0.00,,---,0.42,VWS V14.00,2013-02-24 04:59:00,